Time;durP1;ratioP1;P1;durP2;ratioP2;P2;SDS_P1;SDS_P2;PMS_P1;PMS_P2;Temp;Humidity;BMP_temperature;BMP_pressure;BME280_temperature;BME280_humidity;BME280_pressure;Samples;Min_cycle;Max_cycle;Signal;HPM_P1;HPM_P2
2023/12/30 00:01:16;;;;;;;6.85;1.73;;;8.50;99.90;;;;;;5066602;28;20052;-63
2023/12/30 00:03:41;;;;;;;11.18;1.75;;;8.50;99.90;;;;;;5075231;28;20032;-63
2023/12/30 00:06:07;;;;;;;6.85;1.88;;;8.50;99.90;;;;;;5068934;28;20020;-63
2023/12/30 00:08:33;;;;;;;6.13;1.40;;;8.50;99.90;;;;;;5078550;28;20020;-64
2023/12/30 00:10:59;;;;;;;14.15;1.88;;;8.60;99.90;;;;;;5078489;28;20040;-63
2023/12/30 00:13:25;;;;;;;15.32;2.13;;;8.50;99.90;;;;;;5085249;28;20032;-63
2023/12/30 00:15:50;;;;;;;14.50;2.88;;;8.40;99.90;;;;;;5084173;28;20073;-64
2023/12/30 00:18:16;;;;;;;6.78;1.60;;;8.50;99.90;;;;;;5086805;28;20734;-63
2023/12/30 00:20:41;;;;;;;11.15;2.67;;;8.40;99.90;;;;;;5078748;28;20390;-63
2023/12/30 00:23:07;;;;;;;10.52;1.80;;;8.40;99.90;;;;;;5077781;28;20038;-63
2023/12/30 00:25:33;;;;;;;8.65;1.85;;;8.40;99.90;;;;;;5079552;28;20024;-63
2023/12/30 00:27:58;;;;;;;14.93;2.00;;;8.40;99.90;;;;;;5083529;28;20494;-63
2023/12/30 00:30:24;;;;;;;6.63;1.60;;;8.40;99.90;;;;;;5082225;28;20028;-63
2023/12/30 00:32:49;;;;;;;11.60;1.90;;;8.40;99.90;;;;;;5079090;28;20043;-63
2023/12/30 00:35:15;;;;;;;12.63;2.17;;;8.50;99.90;;;;;;5083715;28;20020;-63
2023/12/30 00:37:41;;;;;;;12.02;1.95;;;8.40;99.90;;;;;;5079635;28;20562;-63
2023/12/30 00:40:07;;;;;;;10.77;2.20;;;8.40;99.90;;;;;;5084066;28;20056;-64
2023/12/30 00:42:33;;;;;;;9.52;2.13;;;8.40;99.90;;;;;;5081928;28;20020;-63
2023/12/30 00:44:59;;;;;;;10.82;2.33;;;8.30;99.90;;;;;;5079490;28;20600;-63
2023/12/30 00:47:24;;;;;;;8.25;1.70;;;8.30;99.90;;;;;;5087184;28;20052;-63
2023/12/30 00:49:50;;;;;;;10.02;2.40;;;8.20;99.90;;;;;;5079315;28;20020;-64
2023/12/30 00:52:15;;;;;;;14.10;2.70;;;8.10;99.90;;;;;;5084188;28;20106;-63
2023/12/30 00:54:41;;;;;;;7.93;2.13;;;8.00;99.90;;;;;;5079953;28;20033;-63
2023/12/30 00:57:07;;;;;;;8.98;1.95;;;8.10;99.90;;;;;;5082226;28;20451;-64
2023/12/30 00:59:33;;;;;;;9.35;2.30;;;8.10;99.90;;;;;;5074805;28;20048;-64
2023/12/30 01:01:59;;;;;;;11.00;2.47;;;8.10;99.90;;;;;;5078822;28;20032;-62
2023/12/30 01:04:25;;;;;;;7.32;2.15;;;8.10;99.90;;;;;;5088005;28;20028;-63
2023/12/30 01:06:51;;;;;;;9.68;3.30;;;8.10;99.90;;;;;;5081614;28;20074;-62
2023/12/30 01:09:17;;;;;;;10.90;2.22;;;8.10;99.90;;;;;;5077949;28;20031;-63
2023/12/30 01:11:42;;;;;;;9.02;2.38;;;8.10;99.90;;;;;;5078157;28;20025;-62
2023/12/30 01:14:08;;;;;;;11.02;2.58;;;8.00;99.90;;;;;;5082054;28;20870;-62
2023/12/30 01:16:36;;;;;;;7.55;1.77;;;7.90;99.90;;;;;;5079605;28;20027;-62
2023/12/30 01:19:02;;;;;;;6.13;2.03;;;7.90;99.90;;;;;;5081143;28;20031;-63
2023/12/30 01:21:28;;;;;;;6.57;1.27;;;7.90;99.90;;;;;;5078967;28;20033;-62
2023/12/30 01:23:53;;;;;;;17.90;2.67;;;8.00;99.90;;;;;;5087177;28;20033;-63
2023/12/30 01:26:19;;;;;;;12.32;2.53;;;8.00;99.90;;;;;;5081276;28;20027;-63
2023/12/30 01:28:45;;;;;;;14.50;2.15;;;8.00;99.90;;;;;;5077173;28;20024;-62
2023/12/30 01:31:11;;;;;;;14.00;3.08;;;7.90;99.90;;;;;;5084172;28;20025;-63
2023/12/30 01:33:36;;;;;;;8.32;1.77;;;8.00;99.90;;;;;;5082526;28;20048;-62
2023/12/30 01:36:03;;;;;;;8.35;2.10;;;7.90;99.90;;;;;;5081943;28;20482;-62
2023/12/30 01:38:29;;;;;;;9.13;1.85;;;8.00;99.90;;;;;;5076458;28;20028;-63
2023/12/30 01:40:55;;;;;;;13.80;2.55;;;8.00;99.90;;;;;;5080440;28;20079;-62
2023/12/30 01:43:28;;;;;;;10.73;3.30;;;8.00;99.90;;;;;;5080826;28;20021;-62
2023/12/30 01:45:56;;;;;;;6.80;2.25;;;8.00;99.90;;;;;;5078283;28;20044;-62
2023/12/30 01:48:22;;;;;;;12.88;2.35;;;8.10;99.90;;;;;;5080308;28;20123;-63
2023/12/30 01:50:52;;;;;;;8.73;2.25;;;8.10;99.90;;;;;;5080758;28;20103;-63
2023/12/30 01:53:19;;;;;;;9.17;2.20;;;8.00;99.90;;;;;;5079606;28;20067;-62
2023/12/30 01:55:49;;;;;;;10.20;2.53;;;8.00;99.90;;;;;;5081175;28;20410;-63
2023/12/30 01:58:14;;;;;;;13.55;2.72;;;8.00;99.90;;;;;;5084001;28;20532;-63
2023/12/30 02:00:42;;;;;;;11.90;3.00;;;8.00;99.90;;;;;;5077161;28;20135;-63
2023/12/30 02:03:08;;;;;;;9.40;2.30;;;8.00;99.90;;;;;;5084200;28;20032;-63
2023/12/30 02:05:35;;;;;;;10.73;2.40;;;8.00;99.90;;;;;;5078224;28;20075;-63
2023/12/30 02:08:00;;;;;;;3.70;1.30;;;8.00;99.90;;;;;;5077950;28;20032;-62
2023/12/30 02:10:26;;;;;;;9.65;1.92;;;8.00;99.90;;;;;;5088451;28;20023;-63
2023/12/30 02:12:52;;;;;;;10.80;1.98;;;7.90;99.90;;;;;;5078692;28;20028;-62
2023/12/30 02:15:17;;;;;;;12.57;2.10;;;7.90;99.90;;;;;;5079656;28;20028;-64
2023/12/30 02:17:47;;;;;;;12.27;2.20;;;7.90;99.90;;;;;;5080516;28;20086;-63
2023/12/30 02:20:13;;;;;;;13.55;2.35;;;7.90;99.90;;;;;;5074880;28;20036;-62
2023/12/30 02:22:45;;;;;;;12.05;1.80;;;7.80;99.90;;;;;;5080854;28;20032;-64
2023/12/30 02:25:11;;;;;;;12.02;1.77;;;7.80;99.90;;;;;;5087116;28;20028;-63
2023/12/30 02:27:36;;;;;;;6.63;2.17;;;7.70;99.90;;;;;;5077990;28;20477;-64
2023/12/30 02:30:03;;;;;;;13.98;2.70;;;7.70;99.90;;;;;;5077957;28;20051;-64
2023/12/30 02:32:28;;;;;;;12.18;2.30;;;7.70;99.90;;;;;;5073527;28;20040;-64
2023/12/30 02:34:54;;;;;;;6.63;2.00;;;7.60;99.90;;;;;;5076785;28;20028;-64
2023/12/30 02:37:19;;;;;;;10.93;2.10;;;7.60;99.90;;;;;;5079366;28;20088;-64
2023/12/30 02:39:45;;;;;;;5.05;1.85;;;7.70;99.90;;;;;;5079637;28;20024;-64
2023/12/30 02:42:10;;;;;;;6.47;1.60;;;7.60;99.90;;;;;;5073525;28;20040;-63
2023/12/30 02:44:36;;;;;;;12.57;1.77;;;7.60;99.90;;;;;;5073192;28;20539;-64
2023/12/30 02:47:02;;;;;;;7.43;1.80;;;7.60;99.90;;;;;;5083098;28;20028;-64
2023/12/30 02:49:30;;;;;;;8.45;2.05;;;7.50;99.90;;;;;;5081682;28;20383;-63
2023/12/30 02:51:57;;;;;;;11.95;2.22;;;7.50;99.90;;;;;;5084110;28;20023;-65
2023/12/30 02:54:22;;;;;;;14.93;2.30;;;7.50;99.90;;;;;;5082500;28;20075;-64
2023/12/30 02:56:48;;;;;;;10.45;2.33;;;7.40;99.90;;;;;;5089968;28;20420;-64
2023/12/30 02:59:14;;;;;;;8.73;2.00;;;7.40;99.90;;;;;;5082611;28;20509;-64
2023/12/30 03:01:39;;;;;;;9.13;2.00;;;7.30;99.90;;;;;;5080586;28;20032;-64
2023/12/30 03:04:05;;;;;;;8.85;1.73;;;7.30;99.90;;;;;;5084084;28;20054;-63
2023/12/30 03:06:31;;;;;;;11.57;2.15;;;7.30;99.90;;;;;;5088662;28;20027;-64
2023/12/30 03:08:56;;;;;;;11.30;1.90;;;7.30;99.90;;;;;;5083426;28;20032;-63
2023/12/30 03:11:23;;;;;;;8.75;2.05;;;7.30;99.90;;;;;;5084182;28;20024;-63
2023/12/30 03:13:48;;;;;;;9.52;1.92;;;7.20;99.90;;;;;;5081506;28;20028;-63
2023/12/30 03:16:15;;;;;;;12.02;2.40;;;7.20;99.90;;;;;;5080725;28;20020;-64
2023/12/30 03:18:41;;;;;;;6.03;1.83;;;7.20;99.90;;;;;;5089480;28;20032;-64
2023/12/30 03:21:08;;;;;;;12.55;2.60;;;7.10;99.90;;;;;;5083467;28;20056;-63
2023/12/30 03:23:35;;;;;;;11.43;2.13;;;7.10;99.90;;;;;;5081715;28;20458;-64
2023/12/30 03:26:01;;;;;;;9.73;2.42;;;7.10;99.90;;;;;;5083891;28;20039;-64
2023/12/30 03:28:27;;;;;;;14.65;2.25;;;7.10;99.90;;;;;;5083064;28;20024;-63
2023/12/30 03:30:52;;;;;;;5.53;1.92;;;7.20;99.90;;;;;;5080163;28;20033;-63
2023/12/30 03:33:18;;;;;;;10.90;2.70;;;7.20;99.90;;;;;;5083467;28;20093;-64
2023/12/30 03:35:44;;;;;;;10.93;2.72;;;7.30;99.90;;;;;;5081290;28;20521;-63
2023/12/30 03:38:09;;;;;;;14.77;2.28;;;7.20;99.90;;;;;;5081980;28;20024;-63
2023/12/30 03:40:35;;;;;;;20.48;2.90;;;7.10;99.90;;;;;;5083917;28;20032;-63
2023/12/30 03:43:01;;;;;;;12.05;2.45;;;7.10;99.90;;;;;;5073922;28;20032;-63
2023/12/30 03:45:26;;;;;;;11.38;2.97;;;7.10;99.90;;;;;;5075617;28;20448;-64
2023/12/30 03:47:52;;;;;;;9.18;2.30;;;7.10;99.90;;;;;;5078500;28;20031;-64
2023/12/30 03:50:18;;;;;;;11.68;2.38;;;7.10;99.90;;;;;;5078253;28;20021;-63
2023/12/30 03:52:44;;;;;;;15.32;2.40;;;7.10;99.90;;;;;;5079640;28;20024;-63
2023/12/30 03:55:10;;;;;;;10.02;2.25;;;7.00;99.90;;;;;;5082191;28;20077;-63
2023/12/30 03:57:36;;;;;;;14.45;2.45;;;7.10;99.90;;;;;;5080583;28;20103;-63
2023/12/30 04:00:01;;;;;;;10.13;2.45;;;7.10;99.90;;;;;;5081331;28;20067;-63
2023/12/30 04:02:27;;;;;;;8.35;2.10;;;7.10;99.90;;;;;;5084767;28;20043;-63
2023/12/30 04:04:52;;;;;;;16.15;2.75;;;7.00;99.90;;;;;;5076974;28;20104;-63
2023/12/30 04:07:18;;;;;;;11.68;1.75;;;7.00;99.90;;;;;;5083000;28;20124;-63
2023/12/30 04:09:44;;;;;;;13.27;2.53;;;7.10;99.90;;;;;;5080507;28;20028;-63
2023/12/30 04:12:09;;;;;;;8.07;1.40;;;7.10;99.90;;;;;;5077759;28;20066;-63
2023/12/30 04:14:35;;;;;;;12.95;2.50;;;7.20;99.90;;;;;;5082808;28;20039;-64
2023/12/30 04:17:01;;;;;;;15.52;2.40;;;7.10;99.90;;;;;;5080545;28;20496;-63
2023/12/30 04:19:26;;;;;;;11.52;2.08;;;7.10;99.90;;;;;;5082403;28;20035;-63
2023/12/30 04:21:52;;;;;;;12.25;1.63;;;7.00;99.90;;;;;;5079238;28;20487;-63
2023/12/30 04:24:18;;;;;;;13.85;2.33;;;7.10;99.90;;;;;;5089891;28;20111;-63
2023/12/30 04:26:44;;;;;;;9.18;1.95;;;7.20;99.90;;;;;;5079794;28;20032;-63
2023/12/30 04:29:10;;;;;;;9.18;2.45;;;7.10;99.90;;;;;;5079540;28;20039;-64
2023/12/30 04:31:36;;;;;;;8.65;2.08;;;7.30;99.90;;;;;;5080065;28;20036;-63
2023/12/30 04:34:02;;;;;;;12.85;1.77;;;7.30;99.90;;;;;;5082128;28;20034;-63
2023/12/30 04:36:28;;;;;;;20.58;2.92;;;7.40;99.90;;;;;;5081375;28;20562;-63
2023/12/30 04:38:53;;;;;;;13.80;2.20;;;7.40;99.90;;;;;;5082931;28;20043;-63
2023/12/30 04:41:19;;;;;;;13.52;3.08;;;7.50;99.90;;;;;;5079188;28;20012;-64
2023/12/30 04:43:45;;;;;;;10.90;2.30;;;7.50;99.90;;;;;;5082160;28;20221;-63
2023/12/30 04:46:14;;;;;;;11.68;2.85;;;7.60;99.90;;;;;;5080656;28;20074;-63
2023/12/30 04:48:39;;;;;;;9.40;2.55;;;7.60;99.90;;;;;;5082230;28;20025;-63
2023/12/30 04:51:05;;;;;;;6.35;1.70;;;7.50;99.90;;;;;;5082889;28;20097;-63
2023/12/30 04:53:31;;;;;;;11.23;2.47;;;7.60;99.90;;;;;;5079285;28;20064;-63
2023/12/30 04:55:56;;;;;;;11.55;2.10;;;7.50;99.90;;;;;;5082836;28;20040;-63
2023/12/30 04:58:22;;;;;;;12.75;1.75;;;7.40;99.90;;;;;;5088508;28;20032;-64
2023/12/30 05:00:48;;;;;;;6.93;2.00;;;7.50;99.90;;;;;;5076878;28;20514;-63
2023/12/30 05:03:15;;;;;;;11.00;2.08;;;7.50;99.90;;;;;;5082697;28;20490;-63
2023/12/30 05:05:41;;;;;;;13.27;2.75;;;7.40;99.90;;;;;;5080466;28;20016;-63
2023/12/30 05:08:07;;;;;;;12.10;2.53;;;7.30;99.90;;;;;;5083046;28;20024;-63
2023/12/30 05:10:33;;;;;;;11.85;2.38;;;7.20;99.90;;;;;;5080776;28;20034;-63
2023/12/30 05:12:59;;;;;;;11.90;2.20;;;7.10;99.90;;;;;;5081809;28;20025;-63
2023/12/30 05:15:25;;;;;;;14.73;2.50;;;7.10;99.90;;;;;;5078983;28;20021;-63
2023/12/30 05:17:50;;;;;;;7.28;1.95;;;7.10;99.90;;;;;;5079040;28;20047;-63
2023/12/30 05:20:17;;;;;;;15.25;3.25;;;7.10;99.90;;;;;;5074382;28;20028;-63
2023/12/30 05:22:43;;;;;;;9.05;2.45;;;7.00;99.90;;;;;;5086611;28;20027;-63
2023/12/30 05:25:09;;;;;;;8.90;2.22;;;7.00;99.90;;;;;;5086811;28;20043;-63
2023/12/30 05:27:35;;;;;;;8.57;2.83;;;7.00;99.90;;;;;;5079304;28;20024;-64
2023/12/30 05:30:01;;;;;;;15.05;2.67;;;6.90;99.90;;;;;;5078185;28;20054;-63
2023/12/30 05:32:27;;;;;;;11.23;2.55;;;6.80;99.90;;;;;;5077654;28;20036;-63
2023/12/30 05:34:52;;;;;;;10.30;2.78;;;6.80;99.90;;;;;;5086642;28;20461;-64
2023/12/30 05:37:18;;;;;;;10.57;2.78;;;6.80;99.90;;;;;;5077906;28;20112;-63
2023/12/30 05:39:44;;;;;;;15.65;2.63;;;6.90;99.90;;;;;;5077822;28;20051;-63
2023/12/30 05:42:09;;;;;;;15.75;2.90;;;6.90;99.90;;;;;;5081253;28;20119;-64
2023/12/30 05:44:36;;;;;;;8.15;2.17;;;6.90;99.90;;;;;;5078430;28;20465;-63
2023/12/30 05:47:02;;;;;;;12.95;2.53;;;7.00;99.90;;;;;;5075786;28;20545;-64
2023/12/30 05:49:28;;;;;;;10.52;2.38;;;6.90;99.90;;;;;;5074614;28;20024;-63
2023/12/30 05:51:53;;;;;;;10.43;2.47;;;7.00;99.90;;;;;;5078085;28;20021;-64
2023/12/30 05:54:19;;;;;;;12.77;2.38;;;7.00;99.90;;;;;;5081518;28;20016;-64
2023/12/30 05:56:45;;;;;;;8.45;1.50;;;7.00;99.90;;;;;;5083164;28;20459;-64
2023/12/30 05:59:10;;;;;;;11.18;2.30;;;6.90;99.90;;;;;;5077222;28;20029;-64
2023/12/30 06:01:46;;;;;;;15.43;2.72;;;6.90;99.90;;;;;;5070554;28;20044;-63
2023/12/30 06:04:12;;;;;;;13.65;2.58;;;6.90;99.90;;;;;;5077607;28;20069;-63
2023/12/30 06:06:38;;;;;;;11.95;2.72;;;6.80;99.90;;;;;;5074730;28;20692;-63
2023/12/30 06:09:03;;;;;;;20.48;2.33;;;6.80;99.90;;;;;;5075496;28;20020;-63
2023/12/30 06:11:29;;;;;;;10.27;2.13;;;6.80;99.90;;;;;;5076828;28;20028;-64
2023/12/30 06:13:55;;;;;;;12.20;2.28;;;6.70;99.90;;;;;;5079731;28;20024;-64
2023/12/30 06:16:21;;;;;;;12.27;2.42;;;6.80;99.90;;;;;;5076505;28;20020;-64
2023/12/30 06:18:46;;;;;;;20.67;3.33;;;6.70;99.90;;;;;;5078279;28;20082;-64
2023/12/30 06:21:12;;;;;;;10.65;2.10;;;6.70;99.90;;;;;;5080433;28;20096;-64
2023/12/30 06:23:38;;;;;;;5.03;2.00;;;6.70;99.90;;;;;;5073930;28;20089;-63
2023/12/30 06:26:03;;;;;;;8.73;1.88;;;6.60;99.90;;;;;;5080758;28;20123;-63
2023/12/30 06:28:29;;;;;;;6.55;2.03;;;6.70;99.90;;;;;;5079611;28;20025;-63
2023/12/30 06:30:55;;;;;;;8.60;2.45;;;6.70;99.90;;;;;;5068740;28;20036;-63
2023/12/30 06:33:22;;;;;;;6.65;1.70;;;6.80;99.90;;;;;;5078367;28;20104;-63
2023/12/30 06:35:48;;;;;;;11.73;2.40;;;6.70;99.90;;;;;;5081102;28;20039;-63
2023/12/30 06:38:17;;;;;;;11.32;2.38;;;6.80;99.90;;;;;;5077553;28;20021;-64
2023/12/30 06:40:45;;;;;;;13.60;3.15;;;6.70;99.90;;;;;;5074323;28;20021;-63
2023/12/30 06:43:11;;;;;;;8.18;2.35;;;6.70;99.90;;;;;;5073416;28;20519;-64
2023/12/30 06:45:37;;;;;;;10.88;2.35;;;6.60;99.90;;;;;;5088169;28;20047;-64
2023/12/30 06:48:03;;;;;;;15.57;2.55;;;6.60;99.90;;;;;;5078592;28;20051;-63
2023/12/30 06:50:29;;;;;;;8.68;2.22;;;6.60;99.90;;;;;;5079631;28;20028;-63
2023/12/30 06:52:55;;;;;;;11.18;2.30;;;6.50;99.90;;;;;;5078528;28;20028;-64
2023/12/30 06:55:21;;;;;;;12.07;2.30;;;6.50;99.90;;;;;;5078432;28;20468;-64
2023/12/30 06:57:47;;;;;;;7.85;1.98;;;6.60;99.90;;;;;;5075705;28;20032;-64
2023/12/30 07:00:13;;;;;;;13.52;2.70;;;6.60;99.90;;;;;;5075511;28;20122;-64
2023/12/30 07:02:40;;;;;;;16.67;3.53;;;6.60;99.90;;;;;;5079273;28;20032;-64
2023/12/30 07:05:06;;;;;;;11.80;3.25;;;6.60;99.90;;;;;;5083019;28;20023;-64
2023/12/30 07:07:32;;;;;;;12.75;2.40;;;6.60;99.90;;;;;;5087243;28;20028;-64
2023/12/30 07:09:57;;;;;;;13.60;2.55;;;6.80;99.90;;;;;;5076642;28;20028;-64
2023/12/30 07:12:23;;;;;;;11.07;2.40;;;6.80;99.90;;;;;;5077780;28;20060;-64
2023/12/30 07:14:49;;;;;;;12.43;2.53;;;6.90;99.90;;;;;;5086201;28;20101;-64
2023/12/30 07:17:16;;;;;;;9.10;2.55;;;7.00;99.90;;;;;;5079433;28;20464;-64
2023/12/30 07:19:41;;;;;;;8.32;2.17;;;7.00;99.90;;;;;;5078720;28;20379;-64
2023/12/30 07:22:08;;;;;;;17.33;2.70;;;7.10;99.90;;;;;;5082296;28;20025;-64
2023/12/30 07:24:34;;;;;;;11.93;2.40;;;7.00;99.90;;;;;;5089011;28;20562;-64
2023/12/30 07:26:59;;;;;;;15.23;3.00;;;7.00;99.90;;;;;;5083472;28;20115;-64
2023/12/30 07:29:25;;;;;;;7.47;2.15;;;7.00;99.90;;;;;;5082447;28;20024;-64
2023/12/30 07:31:50;;;;;;;16.70;3.25;;;6.90;99.90;;;;;;5074815;28;20017;-64
2023/12/30 07:34:20;;;;;;;14.98;2.92;;;6.90;99.90;;;;;;5080021;28;20031;-64
2023/12/30 07:36:46;;;;;;;9.02;2.60;;;6.90;99.90;;;;;;5081089;28;20021;-64
2023/12/30 07:39:13;;;;;;;11.38;3.22;;;6.90;99.90;;;;;;5080702;28;20043;-64
2023/12/30 07:41:38;;;;;;;11.98;2.22;;;6.90;99.90;;;;;;5091547;28;20020;-65
2023/12/30 07:44:04;;;;;;;10.68;2.30;;;6.90;99.90;;;;;;5081059;28;20059;-64
2023/12/30 07:46:30;;;;;;;12.30;2.95;;;6.80;99.90;;;;;;5082900;28;20017;-64
2023/12/30 07:48:55;;;;;;;12.07;2.47;;;6.90;99.90;;;;;;5084391;28;20035;-64
2023/12/30 07:51:21;;;;;;;14.93;3.22;;;6.90;99.90;;;;;;5083848;28;20066;-65
2023/12/30 07:53:47;;;;;;;7.90;2.17;;;6.80;99.90;;;;;;5087434;28;20039;-64
2023/12/30 07:56:12;;;;;;;12.55;3.70;;;6.80;99.90;;;;;;5077064;28;20020;-64
2023/12/30 07:58:39;;;;;;;8.05;2.75;;;6.80;99.90;;;;;;5081076;28;20033;-64
2023/12/30 08:01:05;;;;;;;11.32;1.83;;;6.90;99.90;;;;;;5081027;28;20061;-64
2023/12/30 08:03:31;;;;;;;10.27;2.50;;;6.90;99.90;;;;;;5081711;28;20032;-64
2023/12/30 08:05:57;;;;;;;12.05;2.50;;;7.10;99.90;;;;;;5080386;28;20017;-63
2023/12/30 08:08:22;;;;;;;7.15;2.03;;;6.90;99.90;;;;;;5080687;28;20496;-64
2023/12/30 08:10:48;;;;;;;7.35;2.25;;;7.00;99.90;;;;;;5054078;28;20021;-64
2023/12/30 08:13:16;;;;;;;11.93;2.88;;;7.10;99.90;;;;;;5082521;28;20052;-64
2023/12/30 08:15:41;;;;;;;14.88;1.95;;;7.10;99.90;;;;;;5079949;28;20029;-64
2023/12/30 08:18:07;;;;;;;8.38;2.45;;;7.20;99.90;;;;;;5082812;28;20027;-64
2023/12/30 08:20:33;;;;;;;13.00;2.30;;;7.20;99.90;;;;;;5079018;28;20114;-63
2023/12/30 08:22:58;;;;;;;9.23;1.95;;;7.30;99.90;;;;;;5089941;28;20028;-64
2023/12/30 08:25:24;;;;;;;10.85;2.35;;;7.30;99.90;;;;;;5078911;28;20490;-64
2023/12/30 08:27:50;;;;;;;13.40;2.30;;;7.30;99.90;;;;;;5079893;28;20013;-63
2023/12/30 08:30:15;;;;;;;14.85;2.67;;;7.40;99.90;;;;;;5073688;28;20503;-63
2023/12/30 08:32:41;;;;;;;7.47;2.03;;;7.30;99.90;;;;;;5086510;28;20032;-63
2023/12/30 08:35:08;;;;;;;7.90;2.22;;;7.40;99.90;;;;;;5076225;28;20099;-63
2023/12/30 08:37:35;;;;;;;11.32;2.20;;;7.40;99.90;;;;;;5084969;28;20103;-63
2023/12/30 08:40:05;;;;;;;13.13;2.55;;;7.40;99.90;;;;;;5071650;28;20030;-63
2023/12/30 08:42:34;;;;;;;15.18;2.15;;;7.50;99.90;;;;;;5068887;28;20031;-63
2023/12/30 08:45:00;;;;;;;10.02;2.60;;;7.50;99.90;;;;;;5071531;28;20020;-64
2023/12/30 08:47:28;;;;;;;12.50;3.22;;;7.50;99.90;;;;;;5077834;28;20511;-63
2023/12/30 08:49:54;;;;;;;9.77;2.17;;;7.50;99.90;;;;;;5080583;28;20463;-64
2023/12/30 08:52:19;;;;;;;7.95;2.50;;;7.50;99.90;;;;;;5075988;28;20039;-63
2023/12/30 08:54:45;;;;;;;9.45;2.13;;;7.60;99.90;;;;;;5077669;28;20035;-63
2023/12/30 08:57:11;;;;;;;10.80;3.00;;;7.60;99.90;;;;;;5082045;28;20076;-63
2023/12/30 08:59:36;;;;;;;4.35;1.52;;;7.60;99.90;;;;;;5075488;28;20040;-64
2023/12/30 09:02:02;;;;;;;13.27;2.38;;;7.70;99.90;;;;;;5076521;28;20036;-63
2023/12/30 09:04:28;;;;;;;10.30;2.30;;;7.70;99.90;;;;;;5072018;28;20025;-64
2023/12/30 09:06:55;;;;;;;11.20;2.40;;;7.70;99.90;;;;;;5081658;28;20038;-64
2023/12/30 09:09:20;;;;;;;10.75;2.40;;;7.70;99.90;;;;;;5078260;28;20054;-63
2023/12/30 09:11:46;;;;;;;12.63;2.85;;;7.70;99.90;;;;;;5078661;28;20099;-63
2023/12/30 09:14:12;;;;;;;8.90;2.38;;;7.70;99.90;;;;;;5079040;28;20032;-63
2023/12/30 09:16:37;;;;;;;9.50;2.20;;;7.80;99.90;;;;;;5082063;28;20032;-64
2023/12/30 09:19:03;;;;;;;13.20;2.50;;;7.80;99.90;;;;;;5078003;28;20078;-63
2023/12/30 09:21:29;;;;;;;10.52;2.13;;;7.80;99.90;;;;;;5081282;28;20023;-63
2023/12/30 09:23:56;;;;;;;13.25;2.10;;;7.90;99.90;;;;;;5070053;28;20037;-63
2023/12/30 09:26:21;;;;;;;16.38;2.38;;;7.90;99.90;;;;;;5069549;28;20021;-63
2023/12/30 09:28:47;;;;;;;8.43;2.03;;;8.00;99.90;;;;;;5074360;28;20031;-64
2023/12/30 09:31:13;;;;;;;9.82;2.00;;;8.00;99.90;;;;;;5073846;28;20086;-64
2023/12/30 09:33:39;;;;;;;12.95;2.65;;;8.10;99.90;;;;;;5077379;28;20024;-64
2023/12/30 09:36:05;;;;;;;18.63;4.88;;;8.00;99.90;;;;;;5077343;28;20032;-64
2023/12/30 09:38:31;;;;;;;14.55;3.28;;;8.10;99.90;;;;;;5079261;28;20529;-64
2023/12/30 09:40:57;;;;;;;14.45;2.13;;;8.10;99.90;;;;;;5080130;28;20099;-64
2023/12/30 09:43:24;;;;;;;9.73;2.10;;;8.10;99.90;;;;;;5076977;28;20028;-64
2023/12/30 09:45:51;;;;;;;17.35;2.00;;;8.00;99.90;;;;;;5075145;28;20020;-64
2023/12/30 09:48:25;;;;;;;8.57;2.42;;;8.10;99.90;;;;;;5080534;28;20012;-64
2023/12/30 09:50:51;;;;;;;12.30;1.98;;;8.10;99.90;;;;;;5081385;28;20065;-64
2023/12/30 09:53:21;;;;;;;14.30;2.70;;;8.10;99.90;;;;;;5080103;28;20016;-63
2023/12/30 09:55:47;;;;;;;;;;;8.10;99.90;;;;;;5077949;28;20387;-63
2023/12/30 09:58:13;;;;;;;11.07;2.50;;;8.10;99.90;;;;;;5080451;28;19908;-63
2023/12/30 10:00:42;;;;;;;9.75;2.65;;;8.10;99.90;;;;;;5077331;28;20470;-63
2023/12/30 10:03:09;;;;;;;11.80;2.50;;;8.20;99.90;;;;;;5074029;28;20085;-64
2023/12/30 10:05:34;;;;;;;9.15;2.40;;;8.20;99.90;;;;;;5078756;28;20031;-63
2023/12/30 10:08:03;;;;;;;8.70;2.80;;;8.20;99.90;;;;;;5074375;28;20028;-63
2023/12/30 10:10:46;;;;;;;16.30;3.10;;;8.20;99.90;;;;;;5075796;28;20020;-63
2023/12/30 10:13:13;;;;;;;11.85;2.75;;;8.20;99.90;;;;;;5079401;28;20070;-64
2023/12/30 10:15:40;;;;;;;13.90;2.90;;;8.30;99.90;;;;;;5074658;28;20009;-64
2023/12/30 10:18:07;;;;;;;8.02;2.40;;;8.30;99.90;;;;;;5076016;28;20038;-63
2023/12/30 10:20:35;;;;;;;9.30;2.10;;;8.30;99.90;;;;;;5081332;28;20127;-64
2023/12/30 10:23:01;;;;;;;10.88;2.55;;;8.30;99.90;;;;;;5078733;28;20037;-64
2023/12/30 10:25:27;;;;;;;12.45;2.30;;;8.40;99.90;;;;;;5081227;28;20016;-63
2023/12/30 10:27:53;;;;;;;11.95;2.50;;;8.40;99.90;;;;;;5073581;28;20059;-63
2023/12/30 10:30:19;;;;;;;8.15;2.05;;;8.50;99.90;;;;;;5081199;28;20063;-63
2023/12/30 10:32:46;;;;;;;12.13;2.53;;;8.50;99.90;;;;;;5081999;28;20040;-63
2023/12/30 10:35:13;;;;;;;10.63;2.35;;;8.50;99.90;;;;;;5086868;28;20032;-63
2023/12/30 10:37:42;;;;;;;10.32;2.38;;;8.50;99.90;;;;;;5078399;28;20027;-63
2023/12/30 10:40:09;;;;;;;10.95;2.70;;;8.60;99.90;;;;;;5077152;28;20024;-63
2023/12/30 10:42:35;;;;;;;12.75;3.03;;;8.60;99.90;;;;;;5078066;28;20438;-63
2023/12/30 10:45:01;;;;;;;10.65;2.65;;;8.60;99.90;;;;;;5080034;28;20024;-63
2023/12/30 10:47:27;;;;;;;11.25;3.28;;;8.70;99.90;;;;;;5077089;28;20017;-63
2023/12/30 10:49:58;;;;;;;8.10;2.00;;;8.70;99.90;;;;;;5087404;28;20136;-63
2023/12/30 10:52:27;;;;;;;12.40;3.17;;;8.60;99.90;;;;;;5074445;28;20444;-63
2023/12/30 10:55:08;;;;;;;9.82;2.60;;;8.60;99.90;;;;;;5080410;28;20028;-63
2023/12/30 10:57:39;;;;;;;12.90;2.40;;;8.60;99.90;;;;;;5076581;28;20025;-63
2023/12/30 11:00:09;;;;;;;11.68;2.85;;;8.60;99.90;;;;;;5077161;28;20166;-64
2023/12/30 11:02:38;;;;;;;13.85;2.42;;;8.60;99.90;;;;;;5078713;28;20020;-64
2023/12/30 11:05:14;;;;;;;13.05;3.13;;;8.70;99.90;;;;;;5085453;28;20035;-64
2023/12/30 11:07:40;;;;;;;9.10;1.85;;;8.70;99.90;;;;;;5077769;28;20522;-63
2023/12/30 11:10:26;;;;;;;12.57;2.80;;;8.70;99.90;;;;;;5082365;28;20023;-63
2023/12/30 11:12:53;;;;;;;11.77;2.50;;;8.70;99.90;;;;;;5077425;28;20028;-63
2023/12/30 11:15:28;;;;;;;9.85;2.00;;;8.80;99.90;;;;;;5083271;28;20062;-63
2023/12/30 11:17:56;;;;;;;11.13;2.72;;;8.80;99.90;;;;;;5077497;28;20024;-64
2023/12/30 11:20:27;;;;;;;17.67;2.65;;;8.90;99.90;;;;;;5080125;28;20757;-63
2023/12/30 11:22:56;;;;;;;11.02;2.33;;;8.90;99.90;;;;;;5082272;28;20507;-63
2023/12/30 11:25:21;;;;;;;13.23;2.72;;;9.00;99.90;;;;;;5081341;28;20081;-63
2023/12/30 11:28:20;;;;;;;11.68;2.25;;;9.00;99.90;;;;;;5080594;28;20021;-64
2023/12/30 11:30:55;;;;;;;9.45;2.30;;;9.00;99.90;;;;;;5075076;28;20020;-63
2023/12/30 11:33:21;;;;;;;9.00;1.98;;;8.90;99.90;;;;;;5090415;28;20059;-63
2023/12/30 11:35:51;;;;;;;11.27;3.10;;;9.00;99.90;;;;;;5080501;28;20052;-63
2023/12/30 11:38:18;;;;;;;10.02;2.63;;;9.00;99.90;;;;;;5076883;28;20032;-63
2023/12/30 11:40:49;;;;;;;13.43;2.03;;;9.00;99.90;;;;;;5081972;28;20036;-64
2023/12/30 11:43:15;;;;;;;9.18;2.40;;;9.00;99.90;;;;;;5077092;28;20028;-63
2023/12/30 11:45:41;;;;;;;5.93;1.70;;;9.00;99.90;;;;;;5083433;28;20032;-63
2023/12/30 11:48:07;;;;;;;9.48;2.20;;;9.10;99.90;;;;;;5081870;28;20016;-63
2023/12/30 11:50:33;;;;;;;12.57;2.50;;;9.10;99.90;;;;;;5089652;28;20024;-63
2023/12/30 11:53:01;;;;;;;14.85;2.95;;;9.10;99.90;;;;;;5081114;28;20517;-64
2023/12/30 11:55:27;;;;;;;8.55;2.17;;;9.10;99.90;;;;;;5085803;28;20359;-63
2023/12/30 11:57:53;;;;;;;6.65;1.65;;;9.20;99.90;;;;;;5083789;28;20089;-63
2023/12/30 12:00:20;;;;;;;7.65;2.00;;;9.20;99.90;;;;;;5086458;28;20052;-63
2023/12/30 12:02:46;;;;;;;9.85;2.33;;;9.30;99.90;;;;;;5083833;28;20528;-63
2023/12/30 12:05:12;;;;;;;13.23;2.40;;;9.30;99.90;;;;;;5080782;28;20028;-63
2023/12/30 12:07:38;;;;;;;9.00;2.20;;;9.40;99.90;;;;;;5082882;28;20057;-63
2023/12/30 12:10:04;;;;;;;9.40;2.33;;;9.40;99.90;;;;;;5081214;28;20035;-63
2023/12/30 12:12:42;;;;;;;10.10;2.80;;;9.50;99.90;;;;;;5081738;28;20033;-63
2023/12/30 12:15:08;;;;;;;13.70;2.85;;;9.50;99.90;;;;;;5080816;28;20028;-63
2023/12/30 12:17:37;;;;;;;9.32;2.10;;;9.60;99.90;;;;;;5082864;28;20056;-64
2023/12/30 12:20:07;;;;;;;13.13;3.05;;;9.60;99.90;;;;;;5074788;28;20380;-63
2023/12/30 12:22:33;;;;;;;11.30;3.00;;;9.60;99.90;;;;;;5083827;28;20162;-63
2023/12/30 12:25:02;;;;;;;12.43;2.58;;;9.70;99.90;;;;;;5082270;28;20025;-63
2023/12/30 12:27:29;;;;;;;7.90;2.05;;;9.70;99.90;;;;;;5081368;28;20020;-64
2023/12/30 12:29:56;;;;;;;8.15;1.92;;;9.70;99.90;;;;;;5081860;28;20038;-63
2023/12/30 12:32:23;;;;;;;16.23;2.60;;;9.70;99.90;;;;;;5079659;28;20024;-63
2023/12/30 12:34:50;;;;;;;10.07;2.30;;;9.70;99.90;;;;;;5081546;28;20032;-64
2023/12/30 12:37:16;;;;;;;10.48;2.20;;;9.70;99.90;;;;;;5079371;28;20029;-63
2023/12/30 12:39:43;;;;;;;15.48;2.30;;;9.80;99.90;;;;;;5082607;28;20024;-63
2023/12/30 12:42:09;;;;;;;13.80;2.72;;;9.80;99.90;;;;;;5081825;28;20024;-63
2023/12/30 12:44:35;;;;;;;8.32;2.10;;;9.70;99.90;;;;;;5086403;28;20028;-63
2023/12/30 12:47:01;;;;;;;10.32;2.70;;;9.90;99.90;;;;;;5079484;28;20032;-63